New Russia, New York
Current Conditions -  °F | °C
As of 5:15 AM on Sunday 25 Jan 2015 (Local Time) from K6B0 Reporting Station
Light Snow Light Snow  
Wind Chill: 30°   Ceiling: 3100
Heat Index: 30°   Visibility: 10mi
Dew Point: 28°   Wind: 0mph
Humidity: 92%   Direction: NA
Pressure: 29.39"   Gusts: NA
Location:  44.16°N, 73.61°W
Report Text: K6B0 251015Z AUTO 00000KT 10SM -SN BKN031 BKN048 OVC080 M01/M02 A2939 RMK AO2 T10121023
Loading
Personal Weather Stations






























Interactive Weather Map New forecast layout! Learn more

10-Day Weather Forecast

Advertisements
Track Severe Weather on mobile